Time;durP1;ratioP1;P1;durP2;ratioP2;P2;SDS_P1;SDS_P2;PMS_P1;PMS_P2;Temp;Humidity;BMP_temperature;BMP_pressure;BME280_temperature;BME280_humidity;BME280_pressure;Samples;Min_cycle;Max_cycle;Signal;HPM_P1;HPM_P2
2021/07/25 00:00:33;;;;;;;14.30;11.27;;;19.70;86.30;;;;;;4978377;28;20191;-92
2021/07/25 00:02:59;;;;;;;16.75;10.75;;;19.60;86.20;;;;;;4975962;28;20343;-92
2021/07/25 00:05:25;;;;;;;15.60;10.80;;;19.60;86.40;;;;;;4976265;28;20213;-91
2021/07/25 00:07:50;;;;;;;16.23;11.17;;;19.50;86.70;;;;;;4980505;28;20463;-92
2021/07/25 00:10:16;;;;;;;14.33;10.40;;;19.50;87.00;;;;;;4976304;28;20306;-92
2021/07/25 00:12:42;;;;;;;18.43;11.77;;;19.40;86.40;;;;;;4976265;28;20248;-93
2021/07/25 00:15:08;;;;;;;18.27;11.03;;;19.40;86.20;;;;;;4975710;28;20423;-92
2021/07/25 00:17:34;;;;;;;15.15;11.48;;;19.40;86.30;;;;;;4975942;28;20230;-92
2021/07/25 00:19:59;;;;;;;14.00;11.00;;;19.30;86.70;;;;;;4976270;28;20187;-93
2021/07/25 00:22:25;;;;;;;16.00;11.30;;;19.30;87.30;;;;;;4975808;28;20342;-92
2021/07/25 00:25:02;;;;;;;15.80;11.83;;;19.20;87.90;;;;;;4975949;28;20662;-92
2021/07/25 00:27:29;;;;;;;18.67;10.60;;;19.20;88.20;;;;;;4977492;28;20399;-92
2021/07/25 00:29:54;;;;;;;17.55;11.70;;;19.30;88.20;;;;;;4976067;28;20692;-92
2021/07/25 00:32:20;;;;;;;15.23;10.73;;;19.30;88.00;;;;;;4975828;28;20278;-93
2021/07/25 00:34:46;;;;;;;14.93;11.40;;;19.40;87.40;;;;;;4975531;28;20725;-93
2021/07/25 00:37:11;;;;;;;17.10;11.50;;;19.30;87.40;;;;;;4987619;28;20176;-93
2021/07/25 00:39:37;;;;;;;22.53;11.10;;;19.40;87.20;;;;;;4975783;28;20230;-92
2021/07/25 00:42:04;;;;;;;16.77;11.17;;;19.50;87.00;;;;;;4983691;28;20238;-92
2021/07/25 00:44:30;;;;;;;16.25;11.02;;;19.50;86.30;;;;;;4995578;28;20596;-92
2021/07/25 00:47:00;;;;;;;19.03;10.37;;;19.50;86.00;;;;;;4995289;28;20180;-92
2021/07/25 00:49:28;;;;;;;16.27;10.68;;;19.40;86.10;;;;;;4997130;28;20466;-92
2021/07/25 00:51:54;;;;;;;19.20;11.15;;;19.40;86.30;;;;;;4998740;28;20195;-92
2021/07/25 00:54:21;;;;;;;15.35;11.35;;;19.40;86.20;;;;;;4995936;28;20175;-92
2021/07/25 00:56:46;;;;;;;15.95;11.15;;;19.50;86.40;;;;;;4994610;28;20689;-93
2021/07/25 00:59:12;;;;;;;16.10;11.07;;;19.50;85.50;;;;;;4994725;28;20262;-93
2021/07/25 01:01:38;;;;;;;16.80;10.57;;;19.50;85.20;;;;;;4994249;28;20206;-93
2021/07/25 01:04:41;;;;;;;17.40;12.30;;;19.50;85.00;;;;;;4994726;28;20752;-92
2021/07/25 01:07:35;;;;;;;15.10;11.32;;;19.40;85.20;;;;;;4994081;28;20426;-92
2021/07/25 01:10:29;;;;;;;13.48;10.15;;;19.40;85.20;;;;;;4994450;28;20199;-92
2021/07/25 01:13:00;;;;;;;14.82;10.55;;;19.40;85.30;;;;;;4993858;28;20258;-92
2021/07/25 01:15:51;;;;;;;21.75;12.13;;;19.50;85.50;;;;;;4994314;28;20638;-93
2021/07/25 01:18:16;;;;;;;14.50;10.60;;;19.50;85.10;;;;;;5007813;28;20167;-92
2021/07/25 01:20:42;;;;;;;14.93;11.27;;;19.50;84.70;;;;;;5016699;28;20191;-93
2021/07/25 01:23:08;;;;;;;14.13;10.33;;;19.40;84.80;;;;;;4995932;28;20199;-93
2021/07/25 01:25:35;;;;;;;14.10;9.67;;;19.50;84.90;;;;;;4994814;28;20660;-92
2021/07/25 01:28:06;;;;;;;14.40;9.88;;;19.40;84.80;;;;;;4994921;28;20590;-92
2021/07/25 01:30:35;;;;;;;19.35;9.57;;;19.40;85.00;;;;;;4996682;28;20176;-92
2021/07/25 01:33:28;;;;;;;14.55;10.13;;;19.40;85.00;;;;;;4999104;28;20199;-92
2021/07/25 01:35:57;;;;;;;13.32;9.50;;;19.50;85.00;;;;;;4998794;28;20278;-92
2021/07/25 01:38:27;;;;;;;14.45;11.65;;;19.50;84.90;;;;;;4993455;28;20190;-92
2021/07/25 01:41:03;;;;;;;16.48;10.63;;;19.50;85.00;;;;;;4994201;28;20177;-92
2021/07/25 01:43:32;;;;;;;15.65;11.77;;;19.40;84.70;;;;;;4994129;28;20222;-93
2021/07/25 01:45:57;;;;;;;13.93;11.20;;;19.40;84.70;;;;;;4994977;28;20194;-92
2021/07/25 01:48:23;;;;;;;17.67;12.07;;;19.40;84.80;;;;;;4993333;28;20199;-92
2021/07/25 01:50:49;;;;;;;17.93;10.87;;;19.40;84.70;;;;;;4993137;28;20184;-92
2021/07/25 01:53:18;;;;;;;16.90;11.67;;;19.40;84.60;;;;;;4993549;28;20195;-93
2021/07/25 01:55:44;;;;;;;14.65;12.20;;;19.40;84.70;;;;;;4993540;28;20175;-92
2021/07/25 01:58:09;;;;;;;16.80;11.80;;;19.40;85.10;;;;;;4994084;28;20206;-92
2021/07/25 02:00:36;;;;;;;15.20;10.70;;;19.30;85.40;;;;;;4993300;28;20555;-93
2021/07/25 02:03:01;;;;;;;11.98;10.73;;;19.20;86.00;;;;;;4993536;28;20203;-92
2021/07/25 02:05:27;;;;;;;16.73;12.07;;;19.30;86.60;;;;;;4993407;28;20646;-92
2021/07/25 02:07:53;;;;;;;16.07;10.90;;;19.40;86.50;;;;;;4993152;28;20631;-92
2021/07/25 02:10:19;;;;;;;20.00;12.57;;;19.40;86.20;;;;;;4993342;28;20470;-92
2021/07/25 02:12:44;;;;;;;16.50;10.63;;;19.60;85.50;;;;;;4993343;28;20666;-92
2021/07/25 02:15:11;;;;;;;14.27;10.73;;;19.60;85.10;;;;;;4992977;28;20234;-92
2021/07/25 02:17:37;;;;;;;11.48;9.02;;;19.60;84.40;;;;;;4993450;28;20178;-93
2021/07/25 02:20:03;;;;;;;12.70;9.00;;;19.60;84.20;;;;;;4993011;28;20191;-93
2021/07/25 02:22:29;;;;;;;14.73;11.55;;;19.60;84.30;;;;;;4993827;28;20218;-92
2021/07/25 02:24:55;;;;;;;15.70;10.43;;;19.50;84.30;;;;;;4993670;28;20210;-92
2021/07/25 02:27:21;;;;;;;15.60;11.23;;;19.50;84.50;;;;;;4992964;28;20414;-93
2021/07/25 02:29:46;;;;;;;18.90;10.43;;;19.30;85.00;;;;;;5004991;28;20219;-93
2021/07/25 02:32:12;;;;;;;14.77;11.23;;;19.30;85.50;;;;;;4996310;28;20211;-92
2021/07/25 02:34:40;;;;;;;18.00;11.00;;;19.30;85.80;;;;;;4994505;28;20190;-92
2021/07/25 02:37:11;;;;;;;16.60;11.25;;;19.40;85.30;;;;;;4994251;28;20442;-92
2021/07/25 02:39:38;;;;;;;17.92;9.88;;;19.50;84.80;;;;;;4996555;28;20214;-92
2021/07/25 02:42:04;;;;;;;16.63;10.98;;;19.30;84.60;;;;;;4995442;28;20210;-92
2021/07/25 02:44:30;;;;;;;17.10;11.13;;;19.30;84.60;;;;;;4994271;28;20194;-92
2021/07/25 02:46:56;;;;;;;17.60;10.73;;;19.30;84.50;;;;;;4996246;28;20625;-92
2021/07/25 02:49:22;;;;;;;17.87;11.27;;;19.30;84.70;;;;;;4993212;28;20219;-92
2021/07/25 02:51:48;;;;;;;14.43;11.03;;;19.30;84.80;;;;;;4992945;28;20230;-92
2021/07/25 02:54:14;;;;;;;17.73;11.27;;;19.20;85.00;;;;;;4993067;28;20183;-93
2021/07/25 02:56:39;;;;;;;20.10;11.90;;;19.00;85.50;;;;;;4992924;28;20414;-93
2021/07/25 02:59:05;;;;;;;15.30;11.03;;;19.10;86.00;;;;;;4994832;28;20419;-92
2021/07/25 03:01:32;;;;;;;22.65;12.68;;;19.00;86.20;;;;;;4992930;28;20191;-93
2021/07/25 03:03:58;;;;;;;19.40;11.40;;;18.90;86.70;;;;;;4994028;28;20550;-92
2021/07/25 03:06:23;;;;;;;18.47;12.80;;;19.00;87.00;;;;;;4996950;28;20183;-92
2021/07/25 03:08:49;;;;;;;16.90;11.57;;;19.20;86.20;;;;;;4996141;28;20209;-92
2021/07/25 03:11:15;;;;;;;18.10;11.60;;;19.20;85.80;;;;;;4997756;28;20186;-93
2021/07/25 03:13:41;;;;;;;18.43;11.90;;;19.20;85.80;;;;;;4996824;28;20222;-93
2021/07/25 03:16:08;;;;;;;21.67;12.07;;;19.10;86.00;;;;;;4996588;28;20254;-92
2021/07/25 03:18:34;;;;;;;22.17;11.57;;;19.10;86.20;;;;;;4996272;28;20411;-92
2021/07/25 03:21:02;;;;;;;23.27;11.73;;;19.10;86.20;;;;;;4995827;28;20183;-93
2021/07/25 03:23:28;;;;;;;23.60;13.45;;;19.10;86.40;;;;;;4996217;28;20210;-92
2021/07/25 03:25:54;;;;;;;20.70;12.80;;;19.20;86.00;;;;;;5003204;28;20190;-92
2021/07/25 03:28:20;;;;;;;18.27;12.40;;;19.40;85.50;;;;;;5001481;28;20275;-93
2021/07/25 03:30:46;;;;;;;19.90;11.83;;;19.30;85.10;;;;;;4996754;28;20429;-92
2021/07/25 03:33:12;;;;;;;20.90;13.45;;;19.30;85.00;;;;;;5006180;28;20513;-91
2021/07/25 03:35:40;;;;;;;16.57;11.60;;;19.20;85.00;;;;;;5007614;28;20179;-92
2021/07/25 03:38:06;;;;;;;21.25;12.90;;;19.30;85.30;;;;;;5006737;28;20839;-91
2021/07/25 03:40:33;;;;;;;17.80;11.60;;;19.30;85.50;;;;;;5007090;28;20182;-91
2021/07/25 03:42:58;;;;;;;18.25;12.40;;;19.40;85.30;;;;;;5007369;28;20261;-92
2021/07/25 03:45:24;;;;;;;22.10;13.10;;;19.40;85.20;;;;;;5010204;28;20175;-91
2021/07/25 03:47:50;;;;;;;23.53;10.73;;;19.40;85.00;;;;;;5009842;28;20179;-91
2021/07/25 03:50:16;;;;;;;20.35;13.52;;;19.30;84.80;;;;;;5009037;28;20221;-91
2021/07/25 03:52:42;;;;;;;22.47;13.60;;;19.20;85.00;;;;;;5007508;28;20231;-91
2021/07/25 03:55:08;;;;;;;19.23;12.97;;;19.20;85.30;;;;;;5005003;28;20191;-93
2021/07/25 03:57:35;;;;;;;21.60;13.43;;;19.30;85.40;;;;;;4998593;28;20181;-93
2021/07/25 04:00:03;;;;;;;23.38;13.95;;;19.30;85.40;;;;;;5001319;28;20179;-92
2021/07/25 04:02:28;;;;;;;22.48;13.00;;;19.40;85.30;;;;;;5000359;28;20267;-93
2021/07/25 04:04:54;;;;;;;19.40;11.77;;;19.30;85.40;;;;;;4997600;28;20328;-92
2021/07/25 04:07:20;;;;;;;19.40;12.17;;;19.40;85.40;;;;;;4998086;28;20183;-93
2021/07/25 04:09:45;;;;;;;22.40;13.20;;;19.30;85.60;;;;;;4998931;28;20693;-93
2021/07/25 04:12:11;;;;;;;22.03;12.60;;;19.40;85.40;;;;;;4998417;28;20199;-93
2021/07/25 04:14:37;;;;;;;20.67;12.13;;;19.50;85.20;;;;;;4999112;28;20184;-93
2021/07/25 04:17:04;;;;;;;23.50;11.90;;;19.40;85.40;;;;;;4997059;28;20203;-92
2021/07/25 04:19:30;;;;;;;16.10;11.80;;;19.50;85.50;;;;;;4997499;28;20178;-92
2021/07/25 04:21:55;;;;;;;21.33;12.82;;;19.40;85.50;;;;;;4998338;28;20575;-92
2021/07/25 04:24:22;;;;;;;18.70;12.47;;;19.50;85.70;;;;;;5005627;28;20191;-92
2021/07/25 04:26:48;;;;;;;19.67;12.68;;;19.50;85.60;;;;;;4995995;28;20203;-92
2021/07/25 04:29:14;;;;;;;17.73;12.43;;;19.50;85.80;;;;;;4994783;28;20207;-93
2021/07/25 04:31:40;;;;;;;19.52;13.38;;;19.60;85.80;;;;;;4995638;28;20246;-92
2021/07/25 04:34:06;;;;;;;20.83;11.47;;;19.70;85.40;;;;;;4994717;28;20187;-92
2021/07/25 04:36:32;;;;;;;18.35;11.27;;;19.70;84.40;;;;;;4995253;28;20469;-93
2021/07/25 04:38:59;;;;;;;23.13;13.20;;;19.70;84.20;;;;;;4995420;28;20593;-92
2021/07/25 04:41:27;;;;;;;21.00;11.57;;;19.70;84.30;;;;;;4994954;28;20414;-93
2021/07/25 04:44:02;;;;;;;15.27;11.57;;;19.60;84.70;;;;;;4996813;28;20191;-92
2021/07/25 04:46:29;;;;;;;20.42;13.10;;;19.60;85.10;;;;;;5012203;28;20183;-92
2021/07/25 04:49:17;;;;;;;16.55;11.93;;;19.70;84.90;;;;;;5017152;28;20223;-91
2021/07/25 04:51:46;;;;;;;17.30;12.68;;;19.80;83.80;;;;;;4996740;28;20269;-92
2021/07/25 04:54:14;;;;;;;20.13;12.02;;;19.90;83.30;;;;;;4994860;28;20245;-92
2021/07/25 04:56:59;;;;;;;22.85;12.05;;;19.90;82.90;;;;;;4995818;28;20203;-91
2021/07/25 04:59:47;;;;;;;18.58;11.32;;;19.80;82.70;;;;;;4994509;28;20233;-92
2021/07/25 05:02:17;;;;;;;23.25;12.30;;;19.80;83.00;;;;;;4988848;28;20218;-92
2021/07/25 05:04:43;;;;;;;16.45;10.82;;;19.80;83.00;;;;;;4994769;28;20182;-92
2021/07/25 05:07:11;;;;;;;16.58;11.00;;;19.80;82.90;;;;;;4995531;28;20182;-92
2021/07/25 05:09:38;;;;;;;18.23;10.60;;;19.80;82.90;;;;;;4995900;28;20211;-92
2021/07/25 05:12:13;;;;;;;19.67;10.23;;;19.90;82.80;;;;;;4994968;28;20203;-92
2021/07/25 05:15:02;;;;;;;16.05;9.73;;;19.90;82.70;;;;;;4995085;28;20558;-92
2021/07/25 05:17:52;;;;;;;14.50;9.85;;;20.10;82.50;;;;;;4995503;28;20171;-92
2021/07/25 05:20:21;;;;;;;14.23;9.50;;;20.20;82.00;;;;;;5002567;28;20217;-93
2021/07/25 05:23:02;;;;;;;12.45;9.32;;;20.30;82.50;;;;;;4993659;28;20234;-92
2021/07/25 05:25:30;;;;;;;16.40;9.55;;;20.40;81.80;;;;;;4994596;28;20205;-92
2021/07/25 05:27:57;;;;;;;14.52;8.82;;;20.50;81.30;;;;;;4994498;28;20211;-91
2021/07/25 05:30:24;;;;;;;11.68;8.27;;;20.60;81.70;;;;;;4994397;28;20289;-93
2021/07/25 05:32:50;;;;;;;14.00;7.80;;;20.90;82.10;;;;;;4994502;28;20195;-93
2021/07/25 05:35:17;;;;;;;11.07;7.78;;;21.30;80.40;;;;;;4993521;28;20187;-92
2021/07/25 05:37:44;;;;;;;12.93;7.57;;;21.80;78.30;;;;;;4993758;28;20172;-92
2021/07/25 05:40:12;;;;;;;9.27;6.47;;;22.10;76.10;;;;;;4994404;28;20944;-93
2021/07/25 05:42:39;;;;;;;9.10;7.27;;;22.60;74.60;;;;;;4993631;28;20442;-93
2021/07/25 05:45:07;;;;;;;8.43;6.10;;;23.20;73.80;;;;;;4995374;28;20878;-92
2021/07/25 05:47:37;;;;;;;8.17;5.87;;;23.80;71.10;;;;;;4994269;28;20748;-93
2021/07/25 05:50:04;;;;;;;9.30;7.07;;;24.20;68.10;;;;;;4994159;28;20501;-93
2021/07/25 05:52:44;;;;;;;7.77;6.17;;;24.80;66.60;;;;;;4994460;28;20533;-92
2021/07/25 05:55:10;;;;;;;8.23;5.87;;;25.60;65.40;;;;;;4999906;28;20474;-92
2021/07/25 05:57:37;;;;;;;13.93;5.80;;;26.50;62.70;;;;;;4994251;28;20420;-92
2021/07/25 06:00:04;;;;;;;6.90;5.80;;;27.00;59.30;;;;;;4993986;28;20485;-93
2021/07/25 06:02:30;;;;;;;9.27;7.10;;;26.70;57.50;;;;;;4993716;28;20473;-92
2021/07/25 06:04:55;;;;;;;12.00;5.93;;;27.20;57.00;;;;;;4994320;28;20778;-92
2021/07/25 06:07:21;;;;;;;17.20;6.47;;;26.60;55.70;;;;;;4994425;28;20167;-93
2021/07/25 06:09:47;;;;;;;12.77;5.53;;;26.70;58.20;;;;;;4994059;28;20242;-92
2021/07/25 06:12:16;;;;;;;15.50;6.53;;;27.30;58.60;;;;;;4993867;28;20198;-92
2021/07/25 06:14:41;;;;;;;6.77;5.60;;;27.70;54.50;;;;;;4993418;28;20168;-92
2021/07/25 06:17:07;;;;;;;9.80;5.10;;;28.10;55.10;;;;;;5001234;28;20400;-92
2021/07/25 06:19:33;;;;;;;17.50;6.10;;;28.70;54.50;;;;;;4997180;28;20183;-92
2021/07/25 06:21:59;;;;;;;7.60;5.40;;;29.20;52.70;;;;;;4995214;28;20420;-93
2021/07/25 06:24:26;;;;;;;9.93;4.90;;;29.60;51.20;;;;;;4993917;28;20620;-92
2021/07/25 06:26:52;;;;;;;7.77;5.67;;;29.80;49.10;;;;;;4993736;28;20246;-92
2021/07/25 06:29:17;;;;;;;7.50;5.60;;;30.30;50.20;;;;;;4994455;28;20505;-92
2021/07/25 06:31:43;;;;;;;9.67;5.73;;;30.80;47.70;;;;;;4995776;28;20586;-91
2021/07/25 06:34:09;;;;;;;8.90;5.73;;;31.30;46.90;;;;;;4996385;28;20414;-92
2021/07/25 06:36:35;;;;;;;7.50;5.47;;;31.60;45.70;;;;;;4997610;28;20175;-93
2021/07/25 06:39:01;;;;;;;6.20;5.63;;;31.60;44.50;;;;;;5000513;28;20190;-92
2021/07/25 06:41:27;;;;;;;5.57;5.07;;;31.40;43.90;;;;;;5003661;28;20552;-94
2021/07/25 06:43:52;;;;;;;8.43;5.67;;;31.30;45.00;;;;;;4999461;28;20317;-92
2021/07/25 06:46:18;;;;;;;6.73;5.10;;;31.30;45.80;;;;;;4998908;28;20255;-92
2021/07/25 06:48:44;;;;;;;7.67;6.10;;;31.10;46.70;;;;;;4997789;28;20301;-92
2021/07/25 06:51:09;;;;;;;10.80;6.33;;;31.00;46.10;;;;;;4997120;28;20183;-92
2021/07/25 06:53:35;;;;;;;5.63;5.10;;;30.80;46.60;;;;;;4997196;28;20195;-92
2021/07/25 06:56:04;;;;;;;7.77;5.43;;;30.70;47.10;;;;;;4997965;28;20191;-92
2021/07/25 06:58:31;;;;;;;6.63;5.57;;;30.60;47.00;;;;;;4997220;28;20198;-93
2021/07/25 07:00:57;;;;;;;6.80;5.70;;;30.30;46.40;;;;;;5011920;28;20492;-92
2021/07/25 07:03:23;;;;;;;9.00;5.70;;;30.00;47.00;;;;;;4996431;28;20454;-93
2021/07/25 07:05:49;;;;;;;9.30;5.70;;;29.50;47.50;;;;;;4999126;28;20637;-93
2021/07/25 07:08:15;;;;;;;9.53;5.23;;;29.00;50.30;;;;;;4996837;28;20424;-93
2021/07/25 07:10:42;;;;;;;5.73;4.77;;;28.70;51.70;;;;;;4997543;28;20175;-93
2021/07/25 07:13:13;;;;;;;11.77;5.67;;;28.40;51.00;;;;;;5008215;28;20231;-92
2021/07/25 07:15:42;;;;;;;7.17;4.90;;;28.20;51.90;;;;;;4999539;28;20422;-93
2021/07/25 07:18:08;;;;;;;7.00;5.60;;;28.00;54.00;;;;;;5002790;28;20482;-93
2021/07/25 07:20:33;;;;;;;12.13;4.97;;;27.80;54.20;;;;;;4997907;28;20472;-92
2021/07/25 07:23:02;;;;;;;5.70;4.57;;;27.70;55.00;;;;;;4997041;28;20218;-92
2021/07/25 07:25:33;;;;;;;4.97;4.40;;;27.80;55.70;;;;;;4997528;28;20500;-93
2021/07/25 07:27:59;;;;;;;5.90;5.07;;;27.90;55.00;;;;;;4997072;28;20437;-93
2021/07/25 07:30:25;;;;;;;9.23;4.70;;;27.90;55.00;;;;;;4996409;28;20932;-93
2021/07/25 07:32:51;;;;;;;12.73;4.50;;;28.00;56.00;;;;;;4997345;28;20196;-93
2021/07/25 07:35:26;;;;;;;6.00;5.00;;;28.20;54.70;;;;;;4997136;28;20578;-92
2021/07/25 07:37:51;;;;;;;8.47;5.53;;;27.70;51.60;;;;;;4997524;28;20354;-92
2021/07/25 07:40:19;;;;;;;4.97;4.47;;;27.30;52.70;;;;;;4996372;28;20514;-92
2021/07/25 07:42:45;;;;;;;3.90;3.50;;;27.20;55.20;;;;;;4996848;28;20446;-92
2021/07/25 07:45:11;;;;;;;8.17;4.80;;;27.00;57.00;;;;;;4995804;28;20430;-93
2021/07/25 07:47:38;;;;;;;9.13;5.33;;;26.70;55.30;;;;;;4998207;28;20427;-93
2021/07/25 07:50:04;;;;;;;11.00;4.20;;;26.40;56.60;;;;;;4996506;28;20967;-93
2021/07/25 07:52:30;;;;;;;5.87;4.40;;;26.40;58.50;;;;;;4996754;28;20447;-92
2021/07/25 07:54:55;;;;;;;10.10;4.87;;;25.90;57.30;;;;;;4995784;28;20426;-92
2021/07/25 07:57:21;;;;;;;12.60;4.70;;;26.00;58.50;;;;;;4995274;28;20280;-93
2021/07/25 07:59:47;;;;;;;7.30;4.53;;;25.70;58.50;;;;;;4995484;28;20241;-93
2021/07/25 08:02:16;;;;;;;5.50;4.10;;;25.60;58.70;;;;;;4996555;28;20466;-93
2021/07/25 08:04:42;;;;;;;9.37;5.23;;;25.30;59.90;;;;;;4996062;28;20209;-92
2021/07/25 08:07:07;;;;;;;4.83;4.40;;;25.30;60.10;;;;;;5010731;28;20988;-92
2021/07/25 08:09:33;;;;;;;4.57;3.80;;;25.50;61.40;;;;;;5001672;28;20270;-92
2021/07/25 08:11:59;;;;;;;9.30;4.60;;;25.40;60.70;;;;;;4995880;28;20214;-93
2021/07/25 08:14:25;;;;;;;7.20;4.10;;;25.30;60.90;;;;;;5011270;28;20191;-92
2021/07/25 08:16:50;;;;;;;7.17;4.00;;;25.20;59.70;;;;;;5015409;28;20458;-92
2021/07/25 08:19:17;;;;;;;9.50;4.10;;;25.00;59.70;;;;;;4995987;28;20206;-93
2021/07/25 08:21:43;;;;;;;7.73;3.77;;;24.80;60.20;;;;;;4994806;28;20729;-93
2021/07/25 08:24:09;;;;;;;7.70;3.70;;;25.10;60.50;;;;;;4995512;28;20429;-92
2021/07/25 08:26:35;;;;;;;8.23;3.80;;;25.30;61.80;;;;;;4997642;28;20446;-92
2021/07/25 08:29:02;;;;;;;7.17;3.50;;;25.40;60.10;;;;;;4996087;28;20207;-92
2021/07/25 08:31:28;;;;;;;5.93;3.30;;;25.20;61.20;;;;;;4995824;28;20828;-93
2021/07/25 08:33:54;;;;;;;5.33;3.20;;;25.30;62.40;;;;;;4997127;28;20422;-92
2021/07/25 08:36:19;;;;;;;5.17;3.10;;;25.30;62.90;;;;;;4996000;28;20279;-92
2021/07/25 08:38:46;;;;;;;4.20;3.30;;;25.30;61.80;;;;;;4995252;28;20237;-92
2021/07/25 08:41:13;;;;;;;7.50;3.37;;;25.60;61.90;;;;;;4995037;28;20180;-92
2021/07/25 08:43:45;;;;;;;4.37;2.93;;;25.90;61.40;;;;;;4995977;28;20450;-92
2021/07/25 08:46:21;;;;;;;6.20;3.67;;;26.20;60.20;;;;;;4994441;28;20414;-93
2021/07/25 08:48:52;;;;;;;7.40;3.03;;;26.60;57.90;;;;;;4995130;28;20454;-93
2021/07/25 08:51:23;;;;;;;5.73;3.70;;;27.00;55.40;;;;;;4994956;28;20435;-92
2021/07/25 08:54:10;;;;;;;6.13;3.50;;;27.20;54.10;;;;;;4994378;28;20433;-92
2021/07/25 08:56:37;;;;;;;5.43;4.30;;;27.30;53.30;;;;;;4994917;28;20428;-93
2021/07/25 08:59:05;;;;;;;4.37;3.97;;;27.60;53.20;;;;;;4994811;28;20439;-92
2021/07/25 09:01:37;;;;;;;3.60;3.30;;;27.50;52.80;;;;;;4993870;28;20429;-93
2021/07/25 09:04:04;;;;;;;5.30;3.80;;;27.30;51.60;;;;;;4994489;28;20436;-93
2021/07/25 09:06:47;;;;;;;6.20;4.43;;;27.20;52.70;;;;;;4995429;28;20913;-92
2021/07/25 09:09:14;;;;;;;12.67;4.17;;;27.40;52.40;;;;;;4996265;28;20461;-93
2021/07/25 09:11:40;;;;;;;10.83;4.90;;;27.20;52.80;;;;;;5000957;28;20429;-92
2021/07/25 09:14:06;;;;;;;3.80;3.43;;;26.90;53.00;;;;;;5002318;28;20438;-92
2021/07/25 09:16:33;;;;;;;8.27;3.73;;;27.20;53.20;;;;;;4998005;28;20755;-92
2021/07/25 09:19:00;;;;;;;4.47;3.40;;;27.30;52.00;;;;;;4998224;28;20611;-92
2021/07/25 09:21:52;;;;;;;5.93;2.83;;;27.30;51.20;;;;;;4996978;28;20781;-93
2021/07/25 09:24:24;;;;;;;5.47;2.80;;;27.80;51.30;;;;;;4996178;28;20924;-92
2021/07/25 09:27:04;;;;;;;5.50;4.03;;;28.20;52.30;;;;;;5001089;28;20751;-93
2021/07/25 09:29:37;;;;;;;6.40;3.13;;;28.00;49.50;;;;;;4995986;28;20553;-93
2021/07/25 09:32:12;;;;;;;6.40;3.77;;;28.40;51.30;;;;;;4994151;28;20525;-93
2021/07/25 09:34:42;;;;;;;6.43;3.67;;;28.20;49.00;;;;;;4996173;28;20430;-93
2021/07/25 09:37:14;;;;;;;6.20;3.60;;;28.50;50.00;;;;;;4994661;28;20510;-93
2021/07/25 09:39:58;;;;;;;4.47;3.63;;;28.50;50.30;;;;;;4993942;28;20430;-92
2021/07/25 09:42:32;;;;;;;4.17;3.10;;;28.20;50.50;;;;;;4993822;28;20862;-93
2021/07/25 09:44:59;;;;;;;13.03;3.63;;;27.80;48.30;;;;;;4994294;28;20426;-92
2021/07/25 09:47:33;;;;;;;4.20;2.97;;;27.50;49.80;;;;;;4993825;28;20422;-93
2021/07/25 09:50:03;;;;;;;4.10;3.60;;;27.70;49.30;;;;;;4993328;28;20493;-93
2021/07/25 09:52:38;;;;;;;3.37;2.57;;;27.00;50.60;;;;;;4995159;28;20457;-92
2021/07/25 09:55:07;;;;;;;3.20;2.90;;;26.90;50.70;;;;;;4994911;28;20394;-92
2021/07/25 09:57:37;;;;;;;4.00;3.23;;;27.20;51.70;;;;;;4994409;28;20426;-92
2021/07/25 10:00:11;;;;;;;3.50;3.03;;;27.60;51.20;;;;;;4994914;28;20430;-91
2021/07/25 10:02:45;;;;;;;3.20;2.90;;;26.80;50.80;;;;;;4995797;28;20442;-93
2021/07/25 10:05:15;;;;;;;5.80;3.60;;;26.70;51.60;;;;;;4999397;28;20517;-93
2021/07/25 10:07:42;;;;;;;6.63;3.93;;;26.70;53.60;;;;;;4993191;28;20429;-93
2021/07/25 10:10:10;;;;;;;7.40;3.87;;;26.70;55.70;;;;;;4995186;28;20466;-93
2021/07/25 10:12:38;;;;;;;6.00;3.87;;;26.70;57.50;;;;;;4994963;28;20521;-93
2021/07/25 10:15:16;;;;;;;6.23;3.90;;;26.70;60.20;;;;;;5001333;28;20431;-92
2021/07/25 10:17:45;;;;;;;7.40;3.60;;;26.50;62.60;;;;;;5010533;28;20445;-94
2021/07/25 10:20:12;;;;;;;5.30;3.83;;;26.10;65.00;;;;;;5005892;28;20564;-92
2021/07/25 10:22:40;;;;;;;6.27;3.67;;;25.80;66.10;;;;;;4998016;28;20456;-93
2021/07/25 10:25:09;;;;;;;7.27;3.97;;;25.60;67.00;;;;;;4997650;28;20425;-92
2021/07/25 10:27:39;;;;;;;4.50;3.40;;;25.40;68.00;;;;;;4997236;28;20424;-93
2021/07/25 10:30:08;;;;;;;4.30;3.80;;;25.40;68.00;;;;;;4998896;28;20983;-93
2021/07/25 10:32:36;;;;;;;7.70;4.40;;;25.80;68.50;;;;;;4997911;28;21040;-93
2021/07/25 10:35:10;;;;;;;7.50;4.33;;;26.20;68.40;;;;;;4998006;28;20458;-93
2021/07/25 10:37:37;;;;;;;5.27;4.07;;;26.60;67.80;;;;;;4998809;28;20415;-93
2021/07/25 10:40:05;;;;;;;10.17;3.40;;;26.70;66.10;;;;;;4999620;28;20886;-93
2021/07/25 10:42:34;;;;;;;5.67;4.53;;;26.90;63.20;;;;;;4999974;28;20444;-93
2021/07/25 10:45:01;;;;;;;4.17;3.77;;;27.30;63.30;;;;;;4997842;28;20506;-93
2021/07/25 10:47:31;;;;;;;5.40;3.30;;;27.60;59.50;;;;;;5001155;28;20424;-93
2021/07/25 10:49:57;;;;;;;3.80;2.47;;;27.60;56.70;;;;;;5000229;28;20467;-93
2021/07/25 10:52:23;;;;;;;3.70;3.00;;;27.30;55.80;;;;;;4999370;28;20500;-92
2021/07/25 10:54:48;;;;;;;2.20;2.10;;;27.40;57.70;;;;;;5001332;28;20422;-92
2021/07/25 10:57:15;;;;;;;3.53;2.23;;;27.10;51.30;;;;;;5001372;28;20172;-92
2021/07/25 10:59:45;;;;;;;7.53;2.60;;;26.70;50.40;;;;;;5005437;28;20189;-93
2021/07/25 11:02:34;;;;;;;3.33;2.20;;;26.50;51.60;;;;;;5010395;28;20445;-93
2021/07/25 11:05:02;;;;;;;6.03;3.00;;;26.60;52.00;;;;;;5009896;28;20515;-92
2021/07/25 11:07:27;;;;;;;5.17;2.43;;;26.60;51.20;;;;;;5010886;28;20419;-92
2021/07/25 11:10:10;;;;;;;4.60;2.50;;;26.70;51.10;;;;;;4998963;28;20495;-92
2021/07/25 11:12:51;;;;;;;2.97;2.17;;;26.90;51.50;;;;;;4999173;28;20313;-92
2021/07/25 11:15:26;;;;;;;5.53;1.97;;;27.10;52.20;;;;;;5001183;28;20928;-93
2021/07/25 11:17:53;;;;;;;3.13;2.37;;;27.40;51.40;;;;;;4996826;28;20427;-93
2021/07/25 11:20:35;;;;;;;3.03;2.73;;;27.60;51.90;;;;;;4997115;28;20431;-92
2021/07/25 11:23:02;;;;;;;4.40;2.43;;;27.70;52.60;;;;;;4998096;28;20456;-93
2021/07/25 11:25:35;;;;;;;2.83;2.40;;;27.80;48.90;;;;;;5016272;28;20457;-92
2021/07/25 11:28:02;;;;;;;2.50;2.30;;;27.90;50.10;;;;;;5015381;28;20422;-93
2021/07/25 11:30:53;;;;;;;2.70;2.50;;;27.90;47.40;;;;;;5017477;28;20552;-93
2021/07/25 11:33:40;;;;;;;2.50;2.10;;;27.50;46.90;;;;;;4996253;28;20442;-92
2021/07/25 11:36:11;;;;;;;3.90;2.47;;;27.60;48.90;;;;;;5011271;28;20431;-92
2021/07/25 11:38:38;;;;;;;5.53;2.87;;;27.70;48.00;;;;;;5035366;28;20467;-92
2021/07/25 11:41:06;;;;;;;3.07;2.77;;;27.70;48.80;;;;;;5014565;28;20495;-93
2021/07/25 11:44:01;;;;;;;3.37;2.87;;;27.50;48.50;;;;;;5014401;28;20441;-93
2021/07/25 11:46:29;;;;;;;3.23;2.43;;;27.70;48.90;;;;;;5015787;28;20493;-94
2021/07/25 11:49:16;;;;;;;5.13;3.00;;;27.70;48.70;;;;;;5003781;28;20468;-92
2021/07/25 11:51:58;;;;;;;6.50;2.50;;;27.30;48.50;;;;;;5013066;28;22195;-93
2021/07/25 11:54:23;;;;;;;3.27;2.97;;;27.30;48.80;;;;;;4997046;28;20407;-93
2021/07/25 11:56:54;;;;;;;5.47;2.00;;;27.20;48.80;;;;;;4998429;28;20426;-93
2021/07/25 11:59:20;;;;;;;2.73;2.53;;;27.30;49.10;;;;;;5013803;28;20190;-93
2021/07/25 12:01:46;;;;;;;2.10;1.97;;;27.10;48.70;;;;;;5013794;28;20445;-93
2021/07/25 12:04:17;;;;;;;3.53;2.43;;;27.00;49.50;;;;;;4996666;28;20204;-94
2021/07/25 12:06:43;;;;;;;3.40;2.47;;;27.00;49.70;;;;;;4996898;28;20647;-93
2021/07/25 12:09:10;;;;;;;4.07;2.10;;;26.80;49.80;;;;;;4998246;28;20550;-93
2021/07/25 12:11:37;;;;;;;2.63;2.43;;;26.50;51.60;;;;;;4996954;28;20444;-93
2021/07/25 12:14:04;;;;;;;2.50;2.30;;;26.70;52.60;;;;;;4997379;28;20625;-93
2021/07/25 12:16:47;;;;;;;5.27;2.27;;;26.60;54.00;;;;;;4996476;28;20415;-93
2021/07/25 12:19:15;;;;;;;5.20;2.07;;;26.50;56.10;;;;;;4998134;28;20502;-93
2021/07/25 12:21:41;;;;;;;11.83;5.00;;;26.40;57.60;;;;;;4996912;28;20429;-93
2021/07/25 12:24:27;;;;;;;9.10;4.37;;;25.80;62.90;;;;;;4997230;28;20415;-92
2021/07/25 12:26:52;;;;;;;7.07;3.77;;;25.30;68.20;;;;;;4999252;28;20270;-92
2021/07/25 12:29:44;;;;;;;5.23;3.20;;;24.80;72.00;;;;;;4997527;28;20469;-92
2021/07/25 12:32:19;;;;;;;6.37;3.20;;;24.30;73.00;;;;;;5006389;28;20996;-92
2021/07/25 12:34:44;;;;;;;9.57;3.93;;;24.00;75.00;;;;;;4998949;28;20413;-92
2021/07/25 12:37:30;;;;;;;4.13;3.40;;;23.70;74.90;;;;;;4997921;28;20414;-92
2021/07/25 12:40:27;;;;;;;7.53;3.90;;;23.60;76.10;;;;;;4998241;28;20251;-92
2021/07/25 12:42:59;;;;;;;7.17;4.00;;;23.20;76.60;;;;;;4997805;28;20434;-92
2021/07/25 12:45:31;;;;;;;5.00;4.10;;;22.90;77.70;;;;;;4997688;28;20425;-92
2021/07/25 12:48:11;;;;;;;6.70;3.80;;;22.70;78.40;;;;;;4997213;28;20414;-92